Time;durP1;ratioP1;P1;durP2;ratioP2;P2;SDS_P1;SDS_P2;PMS_P1;PMS_P2;Temp;Humidity;BMP_temperature;BMP_pressure;BME280_temperature;BME280_humidity;BME280_pressure;Samples;Min_cycle;Max_cycle;Signal;HPM_P1;HPM_P2
2023/02/10 08:53:05;;;;;;;28.23;13.33;;;6.10;99.90;;;;;;3325891;26;20231;-72
2023/02/10 08:55:31;;;;;;;35.57;14.43;;;5.90;99.90;;;;;;4958123;28;20208;-71
2023/02/10 08:57:58;;;;;;;34.17;13.83;;;6.00;99.90;;;;;;4971505;28;20231;-72
2023/02/10 09:00:25;;;;;;;38.33;13.80;;;6.00;99.90;;;;;;4943458;28;20209;-71
2023/02/10 09:02:52;;;;;;;32.97;13.53;;;5.90;99.90;;;;;;4937852;29;20303;-70
2023/02/10 09:05:19;;;;;;;39.10;14.47;;;5.80;99.90;;;;;;4937791;29;20572;-70
2023/02/10 09:07:47;;;;;;;31.10;12.63;;;5.80;99.90;;;;;;4939137;29;20232;-73
2023/02/10 09:10:16;;;;;;;28.03;12.87;;;5.70;99.90;;;;;;4944682;28;20246;-70
2023/02/10 09:12:44;;;;;;;33.27;13.93;;;5.80;99.90;;;;;;4937674;29;20224;-70
2023/02/10 09:15:12;;;;;;;38.83;14.80;;;5.80;99.90;;;;;;4937628;29;20698;-71
2023/02/10 09:17:38;;;;;;;35.03;13.07;;;5.90;99.90;;;;;;4937585;29;20212;-72
2023/02/10 09:20:06;;;;;;;35.53;13.90;;;5.80;99.90;;;;;;4937352;29;20215;-70
2023/02/10 09:22:33;;;;;;;34.00;13.67;;;5.80;99.90;;;;;;4937921;29;20209;-71
2023/02/10 09:24:59;;;;;;;36.73;13.40;;;5.90;99.90;;;;;;4937742;29;20223;-72
2023/02/10 09:27:28;;;;;;;34.43;13.63;;;5.90;99.90;;;;;;4937717;29;20223;-70
2023/02/10 09:29:54;;;;;;;38.83;14.83;;;6.00;99.90;;;;;;4937481;29;20640;-70
2023/02/10 09:32:21;;;;;;;33.67;14.23;;;6.10;99.90;;;;;;4937617;29;20209;-69
2023/02/10 09:34:48;;;;;;;39.03;15.27;;;6.20;99.90;;;;;;4937449;29;20237;-69
2023/02/10 09:37:15;;;;;;;34.77;14.53;;;6.30;99.90;;;;;;4937701;29;20563;-70
2023/02/10 09:39:42;;;;;;;37.57;14.53;;;6.40;99.90;;;;;;4937221;29;20587;-70
2023/02/10 09:42:15;;;;;;;36.93;13.80;;;6.40;99.90;;;;;;4937674;29;20212;-70
2023/02/10 09:44:48;;;;;;;43.27;15.50;;;6.20;99.90;;;;;;4941863;29;20219;-70
2023/02/10 09:47:36;;;;;;;32.37;13.27;;;6.10;99.90;;;;;;4953366;28;20208;-71
2023/02/10 09:50:21;;;;;;;37.70;14.57;;;5.90;99.90;;;;;;4956499;28;20215;-69
2023/02/10 09:53:00;;;;;;;34.60;12.83;;;5.70;99.90;;;;;;4956124;28;20215;-70
2023/02/10 09:55:31;;;;;;;35.60;13.90;;;5.70;99.90;;;;;;4956443;28;20204;-71
2023/02/10 09:58:01;;;;;;;41.13;15.10;;;5.70;99.90;;;;;;4956533;28;20228;-69
2023/02/10 10:00:32;;;;;;;40.03;15.10;;;5.70;99.90;;;;;;4948139;28;20200;-68
2023/02/10 10:02:59;;;;;;;40.80;15.20;;;6.00;99.90;;;;;;4955088;28;20211;-68
2023/02/10 10:05:42;;;;;;;45.63;14.40;;;6.20;99.90;;;;;;4956137;28;20210;-69
2023/02/10 10:08:18;;;;;;;39.17;14.90;;;6.20;99.90;;;;;;4955927;28;20238;-68
2023/02/10 10:10:46;;;;;;;41.17;15.30;;;6.10;99.90;;;;;;4956140;28;20203;-69
2023/02/10 10:13:15;;;;;;;38.93;15.63;;;6.00;99.90;;;;;;4956017;28;20239;-68
2023/02/10 10:15:54;;;;;;;39.47;14.80;;;5.90;99.90;;;;;;4956293;28;20238;-68
2023/02/10 10:18:29;;;;;;;41.87;15.63;;;5.90;99.90;;;;;;4956047;28;20228;-68
2023/02/10 10:21:05;;;;;;;40.13;14.53;;;6.00;99.90;;;;;;4936701;28;20219;-71
2023/02/10 10:23:44;;;;;;;42.90;14.80;;;6.10;99.90;;;;;;4937257;29;20216;-70
2023/02/10 10:26:24;;;;;;;40.40;14.40;;;6.20;99.90;;;;;;4943871;29;20214;-74
2023/02/10 10:29:02;;;;;;;38.67;15.33;;;6.10;99.90;;;;;;4955158;28;20722;-69
2023/02/10 10:31:34;;;;;;;42.27;14.77;;;6.40;99.90;;;;;;4936750;28;20208;-69
2023/02/10 10:34:08;;;;;;;40.63;14.90;;;6.60;99.90;;;;;;4936380;29;20730;-71
2023/02/10 10:36:37;;;;;;;39.30;14.27;;;6.60;99.90;;;;;;4935911;29;20205;-69
2023/02/10 10:39:15;;;;;;;39.83;14.87;;;6.80;99.90;;;;;;4948587;29;20250;-70
2023/02/10 10:41:42;;;;;;;34.33;14.00;;;6.80;99.90;;;;;;4917357;29;20209;-69
2023/02/10 10:44:12;;;;;;;41.00;13.57;;;6.70;99.90;;;;;;4917473;29;20217;-69
2023/02/10 10:46:46;;;;;;;39.07;13.97;;;6.60;99.90;;;;;;4917072;29;20220;-69
2023/02/10 10:49:13;;;;;;;38.23;12.67;;;6.60;99.90;;;;;;4917445;29;20233;-70
2023/02/10 10:51:40;;;;;;;34.17;13.03;;;6.80;99.90;;;;;;4935591;29;20212;-69
2023/02/10 10:54:09;;;;;;;33.30;13.17;;;7.00;99.90;;;;;;4935883;29;20247;-69
2023/02/10 10:56:43;;;;;;;34.30;13.07;;;7.00;99.90;;;;;;4936185;29;20264;-70
2023/02/10 10:59:14;;;;;;;29.37;11.77;;;6.90;99.90;;;;;;4935836;29;20331;-69
2023/02/10 11:01:43;;;;;;;34.53;13.63;;;6.90;99.90;;;;;;4935951;29;20224;-69
2023/02/10 11:04:14;;;;;;;31.33;12.77;;;7.10;99.90;;;;;;4936021;29;20224;-69
2023/02/10 11:06:43;;;;;;;33.37;12.90;;;7.30;99.90;;;;;;4936106;29;20219;-69
2023/02/10 11:09:26;;;;;;;35.73;13.70;;;7.60;99.90;;;;;;4935716;29;20232;-70
2023/02/10 11:12:00;;;;;;;37.97;13.67;;;7.60;99.90;;;;;;4935847;29;20212;-69
2023/02/10 11:14:29;;;;;;;34.87;12.80;;;7.50;99.90;;;;;;4939444;29;20227;-69
2023/02/10 11:17:00;;;;;;;38.77;13.07;;;7.30;99.90;;;;;;4948766;28;20213;-70
2023/02/10 11:19:30;;;;;;;40.67;14.03;;;7.30;99.90;;;;;;4935571;29;20236;-69
2023/02/10 11:21:57;;;;;;;37.90;13.13;;;7.40;99.90;;;;;;4935647;29;20235;-69
2023/02/10 11:24:26;;;;;;;37.07;14.33;;;7.40;99.90;;;;;;4935533;29;20690;-70
2023/02/10 11:26:59;;;;;;;31.73;12.00;;;7.60;99.90;;;;;;4935578;29;20209;-70
2023/02/10 11:29:27;;;;;;;33.67;13.13;;;7.70;99.90;;;;;;4935478;29;20238;-69
2023/02/10 11:31:54;;;;;;;29.80;10.57;;;7.80;99.90;;;;;;4935514;29;20244;-69
2023/02/10 11:34:29;;;;;;;30.00;11.73;;;7.80;99.90;;;;;;4930852;29;20611;-67
2023/02/10 11:36:58;;;;;;;31.20;10.47;;;7.50;99.90;;;;;;4936435;29;20214;-67
2023/02/10 11:39:29;;;;;;;33.43;11.03;;;7.20;99.90;;;;;;4936160;29;20613;-66
2023/02/10 11:41:56;;;;;;;28.40;10.27;;;7.30;99.90;;;;;;4954780;28;20208;-68
2023/02/10 11:44:27;;;;;;;32.13;11.03;;;7.40;99.90;;;;;;4954572;28;20208;-67
2023/02/10 11:46:59;;;;;;;24.97;11.13;;;7.40;99.90;;;;;;4954616;28;20309;-66
2023/02/10 11:49:31;;;;;;;24.80;10.10;;;7.50;99.90;;;;;;4957782;28;20315;-66
2023/02/10 11:52:00;;;;;;;25.83;10.90;;;7.50;99.90;;;;;;4954737;28;20213;-70
2023/02/10 11:54:28;;;;;;;24.40;10.50;;;7.60;99.90;;;;;;4938791;29;20774;-70
2023/02/10 12:00:08;;;;;;;27.37;11.10;;;7.70;99.90;;;;;;4939199;29;20358;-70
2023/02/10 12:02:50;;;;;;;29.70;11.23;;;8.10;99.90;;;;;;4939097;29;20208;-71
2023/02/10 12:05:28;;;;;;;27.70;10.63;;;8.30;99.90;;;;;;4938927;29;20213;-71
2023/02/10 12:08:06;;;;;;;27.97;10.30;;;8.20;99.90;;;;;;4938632;29;20234;-67
2023/02/10 12:10:37;;;;;;;26.27;10.50;;;8.40;99.90;;;;;;4938621;29;20212;-71
2023/02/10 12:13:15;;;;;;;30.17;11.17;;;8.70;99.90;;;;;;4938765;29;20216;-71
2023/02/10 12:15:50;;;;;;;28.47;11.33;;;8.80;99.90;;;;;;4939046;29;20234;-71
2023/02/10 12:18:38;;;;;;;29.10;10.63;;;8.80;99.90;;;;;;4938737;29;20699;-71
2023/02/10 12:21:17;;;;;;;25.77;10.43;;;8.80;99.90;;;;;;4938650;29;20208;-67
2023/02/10 12:23:58;;;;;;;22.80;9.57;;;8.70;99.90;;;;;;4938713;29;20213;-71
2023/02/10 12:26:31;;;;;;;24.67;9.60;;;8.80;99.90;;;;;;4938886;29;20213;-71
2023/02/10 12:29:07;;;;;;;24.40;9.50;;;8.50;99.90;;;;;;4946186;29;20224;-68
2023/02/10 12:31:43;;;;;;;25.57;9.30;;;8.40;99.90;;;;;;4954279;28;20563;-70
2023/02/10 12:34:26;;;;;;;24.97;9.73;;;8.20;99.90;;;;;;4938893;29;20232;-69
2023/02/10 12:37:03;;;;;;;26.67;10.20;;;8.30;99.90;;;;;;4938741;29;20205;-71
2023/02/10 12:39:36;;;;;;;23.20;9.87;;;8.50;99.90;;;;;;4938359;29;20238;-71
2023/02/10 12:42:12;;;;;;;24.70;10.23;;;8.50;99.90;;;;;;4938305;29;20209;-71
2023/02/10 12:44:50;;;;;;;26.73;9.53;;;8.60;99.90;;;;;;4938488;29;20209;-71
2023/02/10 12:47:29;;;;;;;23.27;8.87;;;8.70;99.90;;;;;;4938581;29;20220;-72
2023/02/10 12:50:08;;;;;;;22.90;9.10;;;8.80;99.90;;;;;;4938389;29;20216;-73
2023/02/10 12:52:40;;;;;;;21.37;9.00;;;8.90;99.90;;;;;;4937415;29;20227;-73
2023/02/10 12:55:16;;;;;;;25.60;9.97;;;9.00;99.90;;;;;;4937535;29;20233;-72
2023/02/10 12:57:47;;;;;;;25.13;9.37;;;9.10;99.90;;;;;;4937462;29;20236;-72
2023/02/10 13:00:20;;;;;;;23.17;9.30;;;9.00;99.90;;;;;;4936549;29;20213;-73
2023/02/10 13:02:51;;;;;;;22.40;9.43;;;8.90;99.90;;;;;;4936800;29;20219;-67
2023/02/10 13:05:22;;;;;;;22.93;10.90;;;8.60;99.90;;;;;;4938291;29;20216;-68
2023/02/10 13:07:53;;;;;;;22.93;9.57;;;8.50;99.90;;;;;;4937865;29;20239;-71
2023/02/10 13:10:28;;;;;;;25.20;9.63;;;8.50;99.90;;;;;;4938301;29;20234;-70
2023/02/10 13:13:01;;;;;;;28.40;10.03;;;8.50;99.90;;;;;;4938073;29;20213;-71
2023/02/10 13:15:31;;;;;;;19.73;8.77;;;8.30;99.90;;;;;;4937836;29;20233;-72
2023/02/10 13:17:59;;;;;;;22.17;9.60;;;8.20;99.90;;;;;;4937733;29;20319;-71
2023/02/10 13:20:38;;;;;;;24.63;9.57;;;8.00;99.90;;;;;;4938182;29;20212;-71
2023/02/10 13:23:17;;;;;;;27.90;9.33;;;8.00;99.90;;;;;;4937766;29;20209;-71
2023/02/10 13:26:00;;;;;;;23.37;9.27;;;7.90;99.90;;;;;;4938176;29;20239;-70
2023/02/10 13:28:36;;;;;;;23.83;9.70;;;8.00;99.90;;;;;;4937637;29;20699;-71
2023/02/10 13:31:24;;;;;;;20.20;8.83;;;7.90;99.90;;;;;;4937946;29;20863;-71
2023/02/10 13:34:01;;;;;;;27.37;9.37;;;7.90;99.90;;;;;;4937767;29;20329;-72
2023/02/10 13:36:31;;;;;;;25.67;9.83;;;7.90;99.90;;;;;;4937859;29;20209;-71
2023/02/10 13:39:06;;;;;;;25.13;9.30;;;7.80;99.90;;;;;;4937578;29;20704;-71
2023/02/10 13:41:45;;;;;;;24.93;9.53;;;7.90;99.90;;;;;;4937480;29;20212;-71
2023/02/10 13:44:24;;;;;;;30.63;10.40;;;7.90;99.90;;;;;;4937538;29;20213;-71
2023/02/10 13:46:59;;;;;;;25.63;9.63;;;7.90;99.90;;;;;;4937311;29;20216;-68
2023/02/10 13:49:26;;;;;;;28.07;9.60;;;7.90;99.90;;;;;;4937190;29;20275;-69
2023/02/10 13:52:03;;;;;;;33.03;10.27;;;7.90;99.90;;;;;;4937199;29;20213;-71
2023/02/10 13:54:35;;;;;;;27.87;10.67;;;7.90;99.90;;;;;;4937053;29;20730;-68
2023/02/10 13:57:03;;;;;;;26.93;9.40;;;7.90;99.90;;;;;;4937637;29;20217;-70
2023/02/10 13:59:37;;;;;;;29.67;10.27;;;8.00;99.90;;;;;;4936964;29;20229;-71
2023/02/10 14:02:16;;;;;;;34.37;10.90;;;8.00;99.90;;;;;;4937121;29;20223;-71
2023/02/10 14:04:47;;;;;;;29.23;10.93;;;8.10;99.90;;;;;;4937253;29;20575;-71
2023/02/10 14:07:16;;;;;;;25.67;9.60;;;8.00;99.90;;;;;;4936854;29;20213;-71
2023/02/10 14:09:47;;;;;;;25.37;9.63;;;7.90;99.90;;;;;;4937294;29;20236;-71
2023/02/10 14:12:26;;;;;;;29.37;9.27;;;7.50;99.90;;;;;;4936258;29;20213;-72
2023/02/10 14:14:53;;;;;;;23.37;8.83;;;7.40;99.90;;;;;;4937019;29;20244;-71
2023/02/10 14:17:24;;;;;;;27.87;10.13;;;7.50;99.90;;;;;;4936818;29;20213;-71
2023/02/10 14:19:52;;;;;;;26.30;9.40;;;7.50;99.90;;;;;;4936762;29;20219;-71
2023/02/10 14:22:25;;;;;;;28.30;10.13;;;7.50;99.90;;;;;;4936834;29;20213;-71
2023/02/10 14:24:54;;;;;;;26.37;10.07;;;7.50;99.90;;;;;;4936488;29;20209;-71
2023/02/10 14:27:23;;;;;;;31.37;9.23;;;7.60;99.90;;;;;;4936599;29;20210;-70
2023/02/10 14:29:53;;;;;;;25.00;9.77;;;7.70;99.90;;;;;;4936693;29;20575;-72
2023/02/10 14:32:20;;;;;;;32.40;10.60;;;7.80;99.90;;;;;;4936653;29;20223;-72
2023/02/10 14:34:55;;;;;;;31.37;10.30;;;8.00;99.90;;;;;;4936399;29;20236;-72
2023/02/10 14:37:23;;;;;;;27.13;9.40;;;7.90;99.90;;;;;;4936002;29;20384;-72
2023/02/10 14:39:56;;;;;;;34.60;11.10;;;7.90;99.90;;;;;;4936922;29;20220;-72
2023/02/10 14:42:24;;;;;;;29.30;10.13;;;7.90;99.90;;;;;;4936331;29;20209;-72
2023/02/10 14:44:52;;;;;;;32.40;9.83;;;8.00;99.90;;;;;;4936018;29;20213;-72
2023/02/10 14:47:23;;;;;;;24.13;9.37;;;8.10;99.90;;;;;;4936475;29;20209;-71
2023/02/10 14:49:51;;;;;;;29.63;10.77;;;8.00;99.90;;;;;;4936445;29;20260;-69
2023/02/10 14:52:23;;;;;;;29.13;9.63;;;7.90;99.90;;;;;;4936886;29;20231;-71
2023/02/10 14:54:50;;;;;;;27.00;10.43;;;7.90;99.90;;;;;;4936455;29;20232;-71
2023/02/10 14:57:19;;;;;;;37.10;11.40;;;8.00;99.90;;;;;;4936176;29;20215;-71
2023/02/10 14:59:54;;;;;;;27.10;10.47;;;8.00;99.90;;;;;;4936089;29;20239;-71
2023/02/10 15:02:24;;;;;;;37.13;11.43;;;8.10;99.90;;;;;;4936307;29;20271;-72
2023/02/10 15:04:54;;;;;;;35.23;10.07;;;8.10;99.90;;;;;;4936214;29;20209;-72
2023/02/10 15:07:23;;;;;;;28.57;9.77;;;8.00;99.90;;;;;;4936316;29;20212;-68
2023/02/10 15:09:50;;;;;;;32.93;9.87;;;7.90;99.90;;;;;;4936056;29;20237;-72
2023/02/10 15:12:22;;;;;;;27.80;9.87;;;7.90;99.90;;;;;;4935996;29;20208;-71
2023/02/10 15:14:54;;;;;;;31.20;9.70;;;7.80;99.90;;;;;;4935997;29;20236;-71
2023/02/10 15:17:25;;;;;;;32.20;10.90;;;7.80;99.90;;;;;;4936005;29;20216;-70
2023/02/10 15:19:58;;;;;;;26.67;9.53;;;7.70;99.90;;;;;;4935958;29;20216;-71
2023/02/10 15:22:36;;;;;;;34.77;9.97;;;7.70;99.90;;;;;;4935426;29;20215;-71
2023/02/10 15:25:35;;;;;;;27.20;9.50;;;7.60;99.90;;;;;;4936033;29;20219;-72
2023/02/10 15:28:20;;;;;;;28.70;9.50;;;7.60;99.90;;;;;;4935674;29;20275;-71
2023/02/10 15:30:55;;;;;;;28.17;10.40;;;7.40;99.90;;;;;;4931539;29;20212;-75
2023/02/10 15:33:25;;;;;;;33.17;11.13;;;7.40;99.90;;;;;;4951048;28;20208;-73
2023/02/10 15:35:58;;;;;;;28.73;10.70;;;7.40;99.90;;;;;;4941290;29;20235;-70
2023/02/10 15:38:26;;;;;;;32.60;9.87;;;7.40;99.90;;;;;;4951439;28;20231;-70
2023/02/10 15:40:54;;;;;;;33.07;10.37;;;7.40;99.90;;;;;;4935419;29;20213;-70
2023/02/10 15:43:28;;;;;;;24.80;9.30;;;7.40;99.90;;;;;;4935266;29;20213;-70
2023/02/10 15:46:06;;;;;;;26.87;9.40;;;7.50;99.90;;;;;;4935589;29;20216;-70
2023/02/10 15:48:33;;;;;;;25.50;9.67;;;7.40;99.90;;;;;;4945430;28;20223;-70
2023/02/10 15:51:00;;;;;;;27.33;9.43;;;7.40;99.90;;;;;;4937783;28;20219;-70
2023/02/10 15:53:27;;;;;;;25.97;9.53;;;7.40;99.90;;;;;;4934760;29;20676;-70
2023/02/10 15:55:54;;;;;;;33.10;10.17;;;7.40;99.90;;;;;;4935092;29;20245;-71
2023/02/10 15:58:21;;;;;;;31.00;11.63;;;7.50;99.90;;;;;;4935172;29;20224;-70
2023/02/10 16:00:49;;;;;;;31.70;9.83;;;7.50;99.90;;;;;;4934934;29;20204;-70
2023/02/10 16:03:16;;;;;;;32.80;10.33;;;7.40;99.90;;;;;;4935115;29;20204;-70
2023/02/10 16:05:43;;;;;;;30.40;11.03;;;7.30;99.90;;;;;;4935211;29;20553;-69
2023/02/10 16:08:22;;;;;;;33.43;11.27;;;7.30;99.90;;;;;;4934852;29;20232;-70
2023/02/10 16:10:49;;;;;;;29.73;10.43;;;7.30;99.90;;;;;;4935106;29;20216;-73
2023/02/10 16:13:16;;;;;;;28.10;9.70;;;7.20;99.90;;;;;;4935265;29;20209;-69
2023/02/10 16:15:47;;;;;;;35.90;11.13;;;7.10;99.90;;;;;;4935157;29;20247;-70
2023/02/10 16:18:18;;;;;;;28.33;10.53;;;7.10;99.90;;;;;;4934777;29;20235;-69
2023/02/10 16:20:45;;;;;;;30.87;11.43;;;7.00;99.90;;;;;;4934762;29;20215;-70
2023/02/10 16:23:14;;;;;;;26.93;10.47;;;7.00;99.90;;;;;;4935311;29;20209;-71
2023/02/10 16:25:41;;;;;;;29.23;11.03;;;7.00;99.90;;;;;;4950213;29;20200;-70
2023/02/10 16:28:10;;;;;;;32.50;11.77;;;7.10;99.90;;;;;;4942548;28;20228;-70
2023/02/10 16:30:37;;;;;;;35.53;11.50;;;7.10;99.90;;;;;;4934938;29;20216;-69
2023/02/10 16:33:04;;;;;;;27.60;11.13;;;7.30;99.90;;;;;;4934588;29;20537;-69
2023/02/10 16:35:32;;;;;;;29.40;10.87;;;7.40;99.90;;;;;;4936573;29;20248;-69
2023/02/10 16:37:59;;;;;;;41.50;12.20;;;7.40;99.90;;;;;;4938140;29;20237;-69
2023/02/10 16:40:28;;;;;;;31.43;11.60;;;7.40;99.90;;;;;;4938230;29;20209;-70
2023/02/10 16:42:55;;;;;;;37.97;11.40;;;7.30;99.90;;;;;;4938214;29;20215;-71
2023/02/10 16:45:23;;;;;;;31.30;12.30;;;7.30;99.90;;;;;;4938118;29;20218;-71
2023/02/10 16:47:50;;;;;;;37.97;13.60;;;7.20;99.90;;;;;;4938233;29;20254;-70
2023/02/10 16:50:24;;;;;;;33.60;12.17;;;7.10;99.90;;;;;;4938191;29;20209;-70
2023/02/10 16:52:53;;;;;;;36.23;12.60;;;7.10;99.90;;;;;;4938009;29;20216;-70
2023/02/10 16:55:19;;;;;;;36.40;12.30;;;7.10;99.90;;;;;;4937654;29;20236;-70
2023/02/10 16:57:47;;;;;;;31.37;11.43;;;7.10;99.90;;;;;;4937975;29;20240;-70
2023/02/10 17:00:16;;;;;;;34.00;12.07;;;7.00;99.90;;;;;;4937818;29;20209;-70
2023/02/10 17:02:43;;;;;;;39.77;12.80;;;7.10;99.90;;;;;;4938048;29;20675;-71
2023/02/10 17:05:11;;;;;;;32.47;11.50;;;7.00;99.90;;;;;;4938138;29;20220;-70
2023/02/10 17:07:39;;;;;;;35.80;12.87;;;7.00;99.90;;;;;;4937725;29;20213;-71
2023/02/10 17:10:14;;;;;;;29.37;11.10;;;6.90;99.90;;;;;;4937644;29;20209;-70
2023/02/10 17:12:40;;;;;;;29.57;12.17;;;6.90;99.90;;;;;;4937806;29;20204;-70
2023/02/10 17:15:08;;;;;;;31.27;12.13;;;6.90;99.90;;;;;;4937815;29;20204;-70
2023/02/10 17:17:36;;;;;;;34.83;12.43;;;6.90;99.90;;;;;;4937720;29;20209;-70
2023/02/10 17:20:04;;;;;;;29.83;11.97;;;6.90;99.90;;;;;;4937251;29;20219;-69
2023/02/10 17:22:30;;;;;;;30.73;12.53;;;6.80;99.90;;;;;;4933401;29;20205;-72
2023/02/10 17:24:57;;;;;;;33.67;12.13;;;6.80;99.90;;;;;;4945239;29;20204;-70
2023/02/10 17:27:25;;;;;;;33.63;13.07;;;6.90;99.90;;;;;;4954761;28;20226;-71
2023/02/10 17:29:52;;;;;;;31.77;12.07;;;6.90;99.90;;;;;;4948220;28;20212;-71
2023/02/10 17:32:19;;;;;;;34.87;13.33;;;6.80;99.90;;;;;;4935890;29;20219;-71
2023/02/10 17:34:47;;;;;;;32.17;12.40;;;6.80;99.90;;;;;;4936271;29;20213;-71
2023/02/10 17:37:14;;;;;;;34.27;12.17;;;6.70;99.90;;;;;;4934867;29;20240;-73
2023/02/10 17:39:41;;;;;;;29.00;11.50;;;6.70;99.90;;;;;;4935423;29;20260;-71
2023/02/10 17:42:07;;;;;;;28.00;11.90;;;6.60;99.90;;;;;;4934916;29;20205;-71
2023/02/10 17:44:36;;;;;;;34.57;12.20;;;6.60;99.90;;;;;;4935399;29;20680;-74
2023/02/10 17:47:03;;;;;;;31.60;12.07;;;6.70;99.90;;;;;;4935634;29;20205;-68
2023/02/10 17:49:32;;;;;;;33.20;11.60;;;6.70;99.90;;;;;;4935378;29;20224;-69
2023/02/10 17:52:00;;;;;;;23.43;11.03;;;6.70;99.90;;;;;;4936050;29;20216;-77
2023/02/10 17:54:27;;;;;;;30.23;12.13;;;6.70;99.90;;;;;;4935901;29;20216;-73
2023/02/10 17:56:54;;;;;;;33.13;11.60;;;6.70;99.90;;;;;;4935760;29;20715;-74
2023/02/10 17:59:21;;;;;;;33.83;11.53;;;6.70;99.90;;;;;;4935878;29;20225;-72
2023/02/10 18:01:54;;;;;;;28.20;11.70;;;6.70;99.90;;;;;;4935716;29;20625;-73
2023/02/10 18:04:22;;;;;;;24.60;11.40;;;6.70;99.90;;;;;;4936184;29;20219;-71
2023/02/10 18:06:49;;;;;;;24.67;11.60;;;6.70;99.90;;;;;;4935918;29;20212;-73
2023/02/10 18:09:16;;;;;;;30.40;11.47;;;6.70;99.90;;;;;;4935387;29;20703;-72
2023/02/10 18:11:42;;;;;;;37.60;12.00;;;6.80;99.90;;;;;;4935523;29;20304;-72
2023/02/10 18:14:09;;;;;;;31.07;11.07;;;6.70;99.90;;;;;;4935314;29;20614;-73
2023/02/10 18:16:36;;;;;;;28.67;11.47;;;6.70;99.90;;;;;;4935447;29;20245;-73
2023/02/10 18:19:05;;;;;;;27.30;12.20;;;6.70;99.90;;;;;;4934656;29;20760;-73
2023/02/10 18:21:31;;;;;;;29.80;12.07;;;6.70;99.90;;;;;;4935452;29;20212;-73
2023/02/10 18:23:58;;;;;;;32.40;13.27;;;6.60;99.90;;;;;;4936496;29;20213;-69
2023/02/10 18:26:25;;;;;;;35.97;12.57;;;6.60;99.90;;;;;;4935517;29;20346;-70
2023/02/10 18:28:52;;;;;;;29.00;11.73;;;6.60;99.90;;;;;;4935755;29;20232;-71
2023/02/10 18:31:19;;;;;;;33.10;10.60;;;6.60;99.90;;;;;;4944545;29;20208;-69
2023/02/10 18:33:46;;;;;;;31.63;12.23;;;6.70;99.90;;;;;;4935770;29;20213;-68
2023/02/10 18:36:16;;;;;;;35.27;12.20;;;6.70;99.90;;;;;;4935251;29;20236;-69
2023/02/10 18:38:43;;;;;;;32.73;13.10;;;6.80;99.90;;;;;;4934846;29;20229;-70
2023/02/10 18:41:10;;;;;;;30.80;11.67;;;6.80;99.90;;;;;;4935916;29;20213;-70
2023/02/10 18:43:37;;;;;;;32.93;12.27;;;6.90;99.90;;;;;;4936224;29;20594;-71
2023/02/10 18:46:05;;;;;;;30.07;11.17;;;6.90;99.90;;;;;;4936005;29;20209;-71
2023/02/10 18:48:32;;;;;;;26.77;10.43;;;7.00;99.90;;;;;;4936333;29;20324;-71
2023/02/10 18:51:03;;;;;;;28.17;11.10;;;7.00;99.90;;;;;;4935499;29;20241;-71
2023/02/10 18:53:37;;;;;;;26.37;10.77;;;7.00;99.90;;;;;;4935495;29;20221;-71
2023/02/10 18:56:06;;;;;;;27.27;10.87;;;7.10;99.90;;;;;;4935413;29;20228;-72
2023/02/10 18:58:34;;;;;;;27.47;10.70;;;7.10;99.90;;;;;;4935465;29;20280;-71
2023/02/10 19:01:04;;;;;;;30.03;10.97;;;7.20;99.90;;;;;;4936565;29;20235;-72
2023/02/10 19:03:31;;;;;;;26.83;11.00;;;7.20;99.90;;;;;;4936431;29;20219;-72
2023/02/10 19:05:58;;;;;;;28.00;10.87;;;7.30;99.90;;;;;;4936488;29;20221;-71
2023/02/10 19:08:25;;;;;;;26.03;11.17;;;7.20;99.90;;;;;;4935742;29;20232;-71
2023/02/10 19:10:53;;;;;;;29.23;11.50;;;7.20;99.90;;;;;;4936053;29;20210;-71
2023/02/10 19:13:20;;;;;;;23.77;9.50;;;7.20;99.90;;;;;;4935780;29;20215;-71
2023/02/10 19:15:49;;;;;;;22.33;10.97;;;7.30;99.90;;;;;;4935715;29;20208;-71
2023/02/10 19:18:16;;;;;;;25.53;11.13;;;7.30;99.90;;;;;;4932654;29;20228;-72
2023/02/10 19:20:42;;;;;;;25.23;11.03;;;7.30;99.90;;;;;;4935003;29;20205;-71
2023/02/10 19:23:09;;;;;;;24.73;10.20;;;7.40;99.90;;;;;;4935133;29;20215;-71
2023/02/10 19:25:37;;;;;;;27.93;10.90;;;7.40;99.90;;;;;;4935544;29;20307;-73
2023/02/10 19:28:06;;;;;;;24.73;11.03;;;7.40;99.90;;;;;;4934888;29;20224;-72
2023/02/10 19:30:32;;;;;;;23.50;9.10;;;7.40;99.90;;;;;;4935329;29;20209;-72
2023/02/10 19:32:59;;;;;;;24.63;10.00;;;7.40;99.90;;;;;;4935630;29;20212;-72
2023/02/10 19:35:26;;;;;;;21.20;9.00;;;7.40;99.90;;;;;;4935279;29;20208;-71
2023/02/10 19:37:53;;;;;;;19.90;8.87;;;7.50;99.90;;;;;;4933525;29;20263;-71
2023/02/10 19:40:20;;;;;;;23.83;10.23;;;7.40;99.90;;;;;;4928715;29;20201;-72
2023/02/10 19:42:47;;;;;;;24.10;9.97;;;7.40;99.90;;;;;;4928481;29;20208;-71
2023/02/10 19:45:15;;;;;;;25.93;10.10;;;7.40;99.90;;;;;;4923106;29;20205;-72
2023/02/10 19:47:42;;;;;;;21.00;8.37;;;7.40;99.90;;;;;;4926417;29;20217;-72
2023/02/10 19:50:09;;;;;;;22.23;8.43;;;7.50;99.90;;;;;;4931409;29;20220;-71
2023/02/10 19:52:36;;;;;;;18.33;8.80;;;7.60;99.90;;;;;;4926129;29;20220;-73
2023/02/10 19:55:03;;;;;;;17.77;8.70;;;7.60;99.90;;;;;;4929559;29;20206;-72
2023/02/10 19:57:30;;;;;;;23.20;9.33;;;7.60;99.90;;;;;;4934378;29;20242;-72
2023/02/10 19:59:56;;;;;;;20.13;8.63;;;7.60;99.90;;;;;;4932023;29;20209;-72
2023/02/10 20:02:25;;;;;;;23.67;8.97;;;7.60;99.90;;;;;;4928012;29;20663;-71
2023/02/10 20:04:52;;;;;;;17.77;8.33;;;7.60;99.90;;;;;;4928485;29;20209;-72
2023/02/10 20:07:19;;;;;;;16.73;7.30;;;7.60;99.90;;;;;;4928134;29;20213;-72
2023/02/10 20:09:46;;;;;;;17.20;8.00;;;7.60;99.90;;;;;;4926384;29;20263;-72
2023/02/10 20:12:13;;;;;;;18.53;7.70;;;7.50;99.90;;;;;;4935889;29;20204;-71
2023/02/10 20:14:40;;;;;;;17.80;7.70;;;7.40;99.90;;;;;;4930189;29;20214;-71
2023/02/10 20:17:07;;;;;;;22.53;7.83;;;7.40;99.90;;;;;;4938285;29;20236;-73
2023/02/10 20:19:35;;;;;;;17.73;7.60;;;7.40;99.90;;;;;;4936117;29;20228;-72
2023/02/10 20:22:02;;;;;;;19.23;7.57;;;7.50;99.90;;;;;;4938291;29;20247;-73
2023/02/10 20:24:28;;;;;;;20.17;7.30;;;7.50;99.90;;;;;;4933700;29;20690;-73
2023/02/10 20:26:55;;;;;;;13.70;6.37;;;7.60;99.90;;;;;;4937428;29;20265;-72
2023/02/10 20:29:22;;;;;;;15.30;7.00;;;7.50;99.90;;;;;;4932147;29;20721;-72
2023/02/10 20:31:49;;;;;;;16.67;6.73;;;7.50;99.90;;;;;;4936655;29;20217;-72
2023/02/10 20:34:16;;;;;;;17.63;6.60;;;7.50;99.90;;;;;;4934021;29;20231;-73
2023/02/10 20:36:45;;;;;;;16.33;6.63;;;7.50;99.90;;;;;;4935855;29;20232;-73
2023/02/10 20:39:12;;;;;;;12.60;6.03;;;7.50;99.90;;;;;;4935282;29;20700;-73
2023/02/10 20:41:39;;;;;;;13.33;6.43;;;7.50;99.90;;;;;;4935247;29;20678;-72
2023/02/10 20:44:06;;;;;;;12.53;6.10;;;7.50;99.90;;;;;;4934260;29;20217;-73
2023/02/10 20:46:34;;;;;;;13.63;5.93;;;7.40;99.90;;;;;;4933523;29;20202;-71
2023/02/10 20:49:03;;;;;;;14.73;5.80;;;7.40;99.90;;;;;;4938209;29;20281;-71
2023/02/10 20:51:30;;;;;;;11.60;5.30;;;7.40;99.90;;;;;;4929939;29;20252;-71
2023/02/10 20:53:58;;;;;;;12.47;6.00;;;7.40;99.90;;;;;;4933446;29;20220;-71
2023/02/10 20:56:25;;;;;;;14.10;5.10;;;7.40;99.90;;;;;;4935843;29;20710;-71
2023/02/10 20:58:52;;;;;;;15.83;6.40;;;7.40;99.90;;;;;;4937214;29;20280;-72
2023/02/10 21:01:19;;;;;;;13.90;5.87;;;7.40;99.90;;;;;;4927333;29;20216;-72
2023/02/10 21:03:47;;;;;;;9.87;4.73;;;7.40;99.90;;;;;;4934037;29;20205;-71
2023/02/10 21:06:16;;;;;;;16.63;5.10;;;7.50;99.90;;;;;;4932190;29;20235;-71
2023/02/10 21:08:44;;;;;;;13.10;4.90;;;7.50;99.90;;;;;;4934537;29;20225;-73
2023/02/10 21:11:15;;;;;;;12.43;5.23;;;7.50;99.90;;;;;;4932534;29;20211;-73
2023/02/10 21:13:42;;;;;;;10.93;5.13;;;7.40;99.90;;;;;;4935849;29;20215;-72
2023/02/10 21:16:12;;;;;;;9.97;4.60;;;7.40;99.90;;;;;;4933581;29;20213;-73
2023/02/10 21:18:40;;;;;;;9.63;5.07;;;7.40;99.90;;;;;;4935178;29;20234;-73
2023/02/10 21:21:09;;;;;;;13.83;4.87;;;7.40;99.90;;;;;;4933902;29;20227;-73
2023/02/10 21:23:36;;;;;;;11.93;5.30;;;7.40;99.90;;;;;;4933768;29;20300;-73
2023/02/10 21:26:03;;;;;;;12.13;5.47;;;7.40;99.90;;;;;;4935920;29;20219;-72
2023/02/10 21:28:33;;;;;;;8.70;4.83;;;7.40;99.90;;;;;;4934932;29;20228;-72
2023/02/10 21:31:00;;;;;;;12.57;5.10;;;7.40;99.90;;;;;;4931086;29;20212;-72
2023/02/10 21:33:27;;;;;;;11.40;4.43;;;7.40;99.90;;;;;;4935552;29;20212;-71
2023/02/10 21:35:55;;;;;;;13.03;4.93;;;7.40;99.90;;;;;;4937237;29;20220;-71
2023/02/10 21:38:24;;;;;;;12.93;4.37;;;7.40;99.90;;;;;;4929472;29;20361;-71
2023/02/10 21:40:51;;;;;;;10.47;4.20;;;7.40;99.90;;;;;;4932134;29;20244;-71
2023/02/10 21:43:18;;;;;;;10.27;4.27;;;7.40;99.90;;;;;;4925928;29;20213;-72
2023/02/10 21:45:49;;;;;;;11.33;4.33;;;7.40;99.90;;;;;;4932177;29;20215;-72
2023/02/10 21:48:16;;;;;;;7.90;4.53;;;7.40;99.90;;;;;;4931275;29;20224;-71
2023/02/10 21:50:44;;;;;;;11.10;4.73;;;7.30;99.90;;;;;;4937093;29;20293;-71